Terminal Aerodrome Forecast
Issued by NWS Albany, NY

Home | Current Version | Previous Version | Text Only | Print | Product List | Glossary On
Versions: 1 2 3 4 5 6 7 8 9 10 11 12 13 14 15 16 17 18 19
000
FTUS41 KALY 022351
TAFALB
TAF
KALB 022351Z 0300/0324 30017G30KT P6SM VCSH SCT035 OVC050
     FM030200 31012G22KT P6SM SCT050
     FM030600 32004KT P6SM SKC
     FM031200 00000KT P6SM FEW200
     FM031700 17006KT P6SM BKN200
     FM032100 18010KT 3SM -SN BR SCT020 OVC050=

USA.gov is the U.S. government's official web portal to all federal, state and local government web resources and services.